createdAt,value
2018-07-11T00:00:45.319Z,70.21
2018-07-11T00:01:45.002Z,70.41
2018-07-11T00:02:45.242Z,70.25
2018-07-11T00:03:45.241Z,70.5
2018-07-11T00:04:45.232Z,70.64
2018-07-11T00:05:45.241Z,70.41
2018-07-11T00:06:45.242Z,70.73
2018-07-11T00:07:44.977Z,70.5
2018-07-11T00:08:44.969Z,70.41
2018-07-11T00:09:44.968Z,70.5
2018-07-11T00:10:45.339Z,70.6
2018-07-11T00:11:45.235Z,70.44
2018-07-11T00:12:45.226Z,70.6
2018-07-11T00:13:45.264Z,71.37
2018-07-11T00:14:44.978Z,70.6
2018-07-11T00:15:45.259Z,70.41
2018-07-11T00:16:45.216Z,70.31
2018-07-11T00:17:45.215Z,70.6
2018-07-11T00:18:45.229Z,71.17
2018-07-11T00:19:44.961Z,71.27
2018-07-11T00:20:45.228Z,71.17
2018-07-11T00:21:45.221Z,71.08
2018-07-11T00:22:45.212Z,70.89
2018-07-11T00:23:44.962Z,71.56
2018-07-11T00:24:44.965Z,71.56
2018-07-11T00:25:45.264Z,71.17
2018-07-11T00:26:44.951Z,71.46
2018-07-11T00:27:45.215Z,71.37
2018-07-11T00:28:44.965Z,71.66
2018-07-11T00:29:44.950Z,71.37
2018-07-11T00:30:45.210Z,71.46
2018-07-11T00:31:45.203Z,71.46
2018-07-11T00:32:45.204Z,71.27
2018-07-11T00:33:45.210Z,71.37
2018-07-11T00:34:45.198Z,71.27
2018-07-11T00:35:45.201Z,71.46
2018-07-11T00:36:44.950Z,71.56
2018-07-11T00:37:45.202Z,71.66
2018-07-11T00:38:45.222Z,71.75
2018-07-11T00:39:45.200Z,71.37
2018-07-11T00:40:45.015Z,71.27
2018-07-11T00:41:45.200Z,71.75
2018-07-11T00:42:44.964Z,71.37
2018-07-11T00:43:44.954Z,71.37
2018-07-11T00:44:44.939Z,71.17
2018-07-11T00:45:45.196Z,71.37
2018-07-11T00:46:45.197Z,71.46
2018-07-11T00:47:44.943Z,71.46
2018-07-11T00:48:44.944Z,71.56
2018-07-11T00:49:44.940Z,70.83
2018-07-11T00:50:45.206Z,71.31
2018-07-11T00:51:44.941Z,71.21
2018-07-11T00:52:44.955Z,71.02
2018-07-11T00:53:45.213Z,71.11
2018-07-11T00:54:45.204Z,70.83
2018-07-11T00:55:45.199Z,71.02
2018-07-11T00:56:44.942Z,71.5
2018-07-11T00:57:44.936Z,71.21
2018-07-11T00:58:44.946Z,71.5
2018-07-11T00:59:45.182Z,71.59
2018-07-11T01:00:45.185Z,71.46
2018-07-11T01:01:45.187Z,71.5
2018-07-11T01:02:44.939Z,71.4
2018-07-11T01:03:44.934Z,71.59
2018-07-11T01:04:45.181Z,71.98
2018-07-11T01:05:44.928Z,71.4
2018-07-11T01:06:45.185Z,71.59
2018-07-11T01:07:44.931Z,71.11
2018-07-11T01:08:45.200Z,71.02
2018-07-11T01:09:45.189Z,71.11
2018-07-11T01:10:44.946Z,71.02
2018-07-11T01:11:44.928Z,71.02
2018-07-11T01:12:44.932Z,71.21
2018-07-11T01:13:45.191Z,70.92
2018-07-11T01:14:45.242Z,70.83
2018-07-11T01:15:45.224Z,70.92
2018-07-11T01:16:44.926Z,71.59
2018-07-11T01:17:44.930Z,71.02
2018-07-11T01:18:45.188Z,71.5
2018-07-11T01:19:45.182Z,71.21
2018-07-11T01:20:45.179Z,71.11
2018-07-11T01:21:44.924Z,70.92
2018-07-11T01:22:45.183Z,70.83
2018-07-11T01:23:45.192Z,71.31
2018-07-11T01:24:45.175Z,70.83
2018-07-11T01:25:44.926Z,71.4
2018-07-11T01:26:45.174Z,71.21
2018-07-11T01:27:45.195Z,71.4
2018-07-11T01:28:44.923Z,71.78
2018-07-11T01:29:44.923Z,71.98
2018-07-11T01:30:45.224Z,72.17
2018-07-11T01:31:45.179Z,72.45
2018-07-11T01:32:45.191Z,72.36
2018-07-11T01:33:45.183Z,72.27
2018-07-11T01:34:45.178Z,72.55
2018-07-11T01:35:45.244Z,72.55
2018-07-11T01:36:44.921Z,72.74
2018-07-11T01:37:44.922Z,73.13
2018-07-11T01:38:45.184Z,72.84
2018-07-11T01:39:45.174Z,72.74
2018-07-11T01:40:44.985Z,73.41
2018-07-11T01:41:45.171Z,73.19
2018-07-11T01:42:45.170Z,72.55
2018-07-11T01:43:45.182Z,72.55
2018-07-11T01:44:44.930Z,73.22
2018-07-11T01:45:45.222Z,73.22
2018-07-11T01:46:45.172Z,73.22
2018-07-11T01:47:45.186Z,73.19
2018-07-11T01:48:45.191Z,73.32
2018-07-11T01:49:44.917Z,73.61
2018-07-11T01:50:45.191Z,72.94
2018-07-11T01:51:45.166Z,73.51
2018-07-11T01:52:45.167Z,73.41
2018-07-11T01:53:44.912Z,72.74
2018-07-11T01:54:44.919Z,73.41
2018-07-11T01:55:44.937Z,73.13
2018-07-11T01:56:44.913Z,72.74
2018-07-11T01:57:45.168Z,73.41
2018-07-11T01:58:45.194Z,72.27
2018-07-11T01:59:45.171Z,72.64
2018-07-11T02:00:44.913Z,72.55
2018-07-11T02:01:45.173Z,72.94
2018-07-11T02:02:45.168Z,72.45
2018-07-11T02:03:45.167Z,72.45
2018-07-11T02:04:45.167Z,73.32
2018-07-11T02:05:45.252Z,72.94
2018-07-11T02:06:44.918Z,72.55
2018-07-11T02:07:45.173Z,72.36
2018-07-11T02:08:45.175Z,72.45
2018-07-11T02:09:44.915Z,72.55
2018-07-11T02:10:45.233Z,73.03
2018-07-11T02:11:45.162Z,72.36
2018-07-11T02:12:45.165Z,72.55
2018-07-11T02:13:45.170Z,72.64
2018-07-11T02:14:45.159Z,72.84
2018-07-11T02:15:45.160Z,72.27
2018-07-11T02:16:44.918Z,72.55
2018-07-11T02:17:45.164Z,72.64
2018-07-11T02:18:44.916Z,73.13
2018-07-11T02:19:45.161Z,72.64
2018-07-11T02:20:45.196Z,72.94
2018-07-11T02:21:45.160Z,72.45
2018-07-11T02:22:45.167Z,72.74
2018-07-11T02:23:44.948Z,73.03
2018-07-11T02:24:44.918Z,73.51
2018-07-11T02:25:45.242Z,73.32
2018-07-11T02:26:44.911Z,73.22
2018-07-11T02:27:45.158Z,73.22
2018-07-11T02:28:45.730Z,73.22
2018-07-11T02:29:44.907Z,73.7
2018-07-11T02:30:44.967Z,74.18
2018-07-11T02:31:45.164Z,73.99
2018-07-11T02:32:44.910Z,74.08
2018-07-11T02:33:44.915Z,73.8
2018-07-11T02:34:45.158Z,74.37
2018-07-11T02:35:45.201Z,73.8
2018-07-11T02:36:45.164Z,73.99
2018-07-11T02:37:45.206Z,73.8
2018-07-11T02:38:45.162Z,74.37
2018-07-11T02:39:45.160Z,74.37
2018-07-11T02:40:45.235Z,75.04
2018-07-11T02:41:45.164Z,75.14
2018-07-11T02:42:45.156Z,75.81
2018-07-11T02:43:45.166Z,76.19
2018-07-11T02:44:45.180Z,76.19
2018-07-11T02:45:45.257Z,76.19
2018-07-11T02:46:44.926Z,76.48
2018-07-11T02:47:45.175Z,76.96
2018-07-11T02:48:44.902Z,76.48
2018-07-11T02:49:45.167Z,76.54
2018-07-11T02:50:44.940Z,76
2018-07-11T02:51:45.159Z,76.39
2018-07-11T02:52:45.166Z,76.39
2018-07-11T02:53:45.223Z,76.39
2018-07-11T02:54:45.156Z,76.57
2018-07-11T02:55:45.164Z,76.48
2018-07-11T02:56:44.906Z,76.39
2018-07-11T02:57:44.925Z,76.48
2018-07-11T02:58:44.901Z,76.15
2018-07-11T02:59:44.899Z,76.35
2018-07-11T03:00:45.154Z,76.39
2018-07-11T03:01:45.157Z,76.77
2018-07-11T03:02:45.154Z,76.57
2018-07-11T03:03:45.157Z,76.67
2018-07-11T03:04:45.149Z,76.67
2018-07-11T03:05:45.226Z,76.57
2018-07-11T03:06:44.895Z,76.54
2018-07-11T03:07:45.150Z,76
2018-07-11T03:08:45.154Z,76
2018-07-11T03:09:44.901Z,75.9
2018-07-11T03:10:45.201Z,75.71
2018-07-11T03:11:45.149Z,75.71
2018-07-11T03:12:45.156Z,75.43
2018-07-11T03:13:45.157Z,75.52
2018-07-11T03:14:45.163Z,75.9
2018-07-11T03:15:44.901Z,75.71
2018-07-11T03:16:45.143Z,75.9
2018-07-11T03:17:45.148Z,75.9
2018-07-11T03:18:45.152Z,76
2018-07-11T03:19:45.153Z,75.81
2018-07-11T03:20:45.237Z,75.81
2018-07-11T03:21:44.893Z,75.71
2018-07-11T03:22:44.903Z,75.9
2018-07-11T03:23:45.172Z,75.62
2018-07-11T03:24:44.893Z,75.52
2018-07-11T03:25:44.894Z,75.81
2018-07-11T03:26:45.145Z,75.81
2018-07-11T03:27:45.144Z,76
2018-07-11T03:28:44.893Z,76
2018-07-11T03:29:45.144Z,76
2018-07-11T03:30:45.143Z,75.52
2018-07-11T03:31:44.900Z,75.71
2018-07-11T03:32:45.185Z,75.9
2018-07-11T03:33:45.159Z,75.52
2018-07-11T03:34:44.890Z,76.1
2018-07-11T03:35:44.895Z,76.1
2018-07-11T03:36:45.163Z,75.9
2018-07-11T03:37:44.894Z,76
2018-07-11T03:38:44.897Z,76
2018-07-11T03:39:44.913Z,76.57
2018-07-11T03:40:44.946Z,76.48
2018-07-11T03:41:44.913Z,76.57
2018-07-11T03:42:45.139Z,76.48
2018-07-11T03:43:45.170Z,77.06
2018-07-11T03:44:45.147Z,77.25
2018-07-11T03:45:45.148Z,77.06
2018-07-11T03:46:45.143Z,77.06
2018-07-11T03:47:44.890Z,76.96
2018-07-11T03:48:45.710Z,76.86
2018-07-11T03:49:45.142Z,76.96
2018-07-11T03:50:45.140Z,76.67
2018-07-11T03:51:45.144Z,76.67
2018-07-11T03:52:45.145Z,77.25
2018-07-11T03:53:45.206Z,76.96
2018-07-11T03:54:44.893Z,76.86
2018-07-11T03:55:44.892Z,76.96
2018-07-11T03:56:44.891Z,76.96
2018-07-11T03:57:45.143Z,77.63
2018-07-11T03:58:45.159Z,77.44
2018-07-11T03:59:44.900Z,77.63
2018-07-11T04:00:44.895Z,77.34
2018-07-11T04:01:45.142Z,77.25
2018-07-11T04:02:44.896Z,77.25
2018-07-11T04:03:45.144Z,77.06
2018-07-11T04:04:44.935Z,76.96
2018-07-11T04:05:44.897Z,77.25
2018-07-11T04:06:45.134Z,77.92
2018-07-11T04:07:45.135Z,77.92
2018-07-11T04:08:44.899Z,77.53
2018-07-11T04:09:44.882Z,77.92
2018-07-11T04:10:45.139Z,78.2
2018-07-11T04:11:45.139Z,78.78
2018-07-11T04:12:45.135Z,78.69
2018-07-11T04:13:44.886Z,78.78
2018-07-11T04:14:45.134Z,78.78
2018-07-11T04:15:45.136Z,78.2
2018-07-11T04:16:44.901Z,77.92
2018-07-11T04:17:44.880Z,78.2
2018-07-11T04:18:44.885Z,78.59
2018-07-11T04:19:45.137Z,78.11
2018-07-11T04:20:45.139Z,78.02
2018-07-11T04:21:44.881Z,78.2
2018-07-11T04:22:45.143Z,78.2
2018-07-11T04:23:44.897Z,78.2
2018-07-11T04:24:44.881Z,78.3
2018-07-11T04:25:45.133Z,78.49
2018-07-11T04:26:45.146Z,78.11
2018-07-11T04:27:44.884Z,78.88
2018-07-11T04:28:44.911Z,78.2
2018-07-11T04:29:44.879Z,78.11
2018-07-11T04:30:44.880Z,78.4
2018-07-11T04:31:45.130Z,78.4
2018-07-11T04:32:45.129Z,78.69
2018-07-11T04:33:44.879Z,79.07
2018-07-11T04:34:44.979Z,78.4
2018-07-11T04:35:45.134Z,78.78
2018-07-11T04:36:45.131Z,78.78
2018-07-11T04:37:45.131Z,78.02
2018-07-11T04:38:45.128Z,78.78
2018-07-11T04:39:45.133Z,78.3
2018-07-11T04:40:45.170Z,78.4
2018-07-11T04:41:45.128Z,78.2
2018-07-11T04:42:45.133Z,78.11
2018-07-11T04:43:44.877Z,78.78
2018-07-11T04:44:44.875Z,78.2
2018-07-11T04:45:45.204Z,78.59
2018-07-11T04:46:45.131Z,78.2
2018-07-11T04:47:45.128Z,78.3
2018-07-11T04:48:45.143Z,78.97
2018-07-11T04:49:45.132Z,79.07
2018-07-11T04:50:45.165Z,78.88
2018-07-11T04:51:44.873Z,79.16
2018-07-11T04:52:45.282Z,78.88
2018-07-11T04:53:44.874Z,79.45
2018-07-11T04:54:45.135Z,79.74
2018-07-11T04:55:45.132Z,79.64
2018-07-11T04:56:44.882Z,80.22
2018-07-11T04:57:45.131Z,79.74
2018-07-11T04:58:44.897Z,79.45
2018-07-11T04:59:45.136Z,79.83
2018-07-11T05:00:45.129Z,79.74
2018-07-11T05:01:44.873Z,79.36
2018-07-11T05:02:45.134Z,79.64
2018-07-11T05:03:44.881Z,79.36
2018-07-11T05:04:45.187Z,80.12
2018-07-11T05:05:45.131Z,80.32
2018-07-11T05:06:45.128Z,79.64
2018-07-11T05:07:45.133Z,79.45
2018-07-11T05:08:44.877Z,79.45
2018-07-11T05:09:45.130Z,79.64
2018-07-11T05:10:44.924Z,79.74
2018-07-11T05:11:45.132Z,80.22
2018-07-11T05:12:45.142Z,80.12
2018-07-11T05:13:45.149Z,80.12
2018-07-11T05:14:45.127Z,79.93
2018-07-11T05:15:45.154Z,80.12
2018-07-11T05:16:45.126Z,80.32
2018-07-11T05:17:44.874Z,80.41
2018-07-11T05:18:45.132Z,80.03
2018-07-11T05:19:45.132Z,80.7
2018-07-11T05:20:45.157Z,80.7
2018-07-11T05:21:45.128Z,81.27
2018-07-11T05:22:44.873Z,80.51
2018-07-11T05:23:45.135Z,81.08
2018-07-11T05:24:45.129Z,81.18
2018-07-11T05:25:44.895Z,81.18
2018-07-11T05:26:45.148Z,80.99
2018-07-11T05:27:45.256Z,81.85
2018-07-11T05:28:45.135Z,81.18
2018-07-11T05:29:45.132Z,81.85
2018-07-11T05:30:45.187Z,81.56
2018-07-11T05:31:45.123Z,81.66
2018-07-11T05:32:45.120Z,81.66
2018-07-11T05:33:45.155Z,81.66
2018-07-11T05:34:44.871Z,81.95
2018-07-11T05:35:45.152Z,81.85
2018-07-11T05:36:45.125Z,81.95
2018-07-11T05:37:44.871Z,81.85
2018-07-11T05:38:44.873Z,81.75
2018-07-11T05:39:45.126Z,81.56
2018-07-11T05:40:45.153Z,81.75
2018-07-11T05:41:44.872Z,81.46
2018-07-11T05:42:44.874Z,81.85
2018-07-11T05:43:45.133Z,81.08
2018-07-11T05:44:45.129Z,81.41
2018-07-11T05:45:45.128Z,81.08
2018-07-11T05:46:44.869Z,81.27
2018-07-11T05:47:45.129Z,81.37
2018-07-11T05:48:44.879Z,81.75
2018-07-11T05:49:44.873Z,82.23
2018-07-11T05:50:45.130Z,82.04
2018-07-11T05:51:45.133Z,82.81
2018-07-11T05:52:44.877Z,83.09
2018-07-11T05:53:45.138Z,82.81
2018-07-11T05:54:45.121Z,83.38
2018-07-11T05:55:45.191Z,83.29
2018-07-11T05:56:44.868Z,83.48
2018-07-11T05:57:45.131Z,83.48
2018-07-11T05:58:44.869Z,82.81
2018-07-11T05:59:45.289Z,82.81
2018-07-11T06:00:45.179Z,83
2018-07-11T06:01:44.868Z,82.23
2018-07-11T06:02:45.313Z,81.51
2018-07-11T06:03:44.864Z,79.78
2018-07-11T06:04:45.124Z,80.07
2018-07-11T06:05:44.973Z,79.97
2018-07-11T06:06:45.125Z,79.3
2018-07-11T06:07:45.122Z,78.34
2018-07-11T06:08:45.139Z,78.15
2018-07-11T06:09:45.127Z,77.58
2018-07-11T06:10:45.131Z,77.42
2018-07-11T06:11:44.876Z,77.13
2018-07-11T06:12:45.123Z,76.94
2018-07-11T06:13:45.348Z,75.89
2018-07-11T06:14:45.123Z,75.79
2018-07-11T06:24:26.336Z,73.33
2018-07-11T06:25:26.323Z,73.14
2018-07-11T06:26:26.585Z,73.33
2018-07-11T06:27:26.580Z,72.69
2018-07-11T06:28:26.331Z,71.45
2018-07-11T06:29:26.562Z,71.25
2018-07-11T06:30:26.584Z,70.97
2018-07-11T06:31:26.344Z,70.39
2018-07-11T06:32:26.563Z,69.91
2018-07-11T06:33:26.705Z,71.12
2018-07-11T06:34:26.317Z,71.28
2018-07-11T06:35:26.575Z,71.09
2018-07-11T06:36:26.573Z,70.8
2018-07-11T06:37:26.558Z,70.99
2018-07-11T06:38:26.567Z,71.37
2018-07-11T06:39:26.348Z,71.28
2018-07-11T06:40:26.571Z,70.99
2018-07-11T06:41:26.329Z,70.99
2018-07-11T06:42:26.319Z,70.42
2018-07-11T06:43:26.569Z,70.55
2018-07-11T06:44:26.329Z,70.07
2018-07-11T06:45:26.570Z,69.3
2018-07-11T06:46:26.565Z,69.72
2018-07-11T06:47:26.337Z,68.95
2018-07-11T06:48:26.572Z,68.37
2018-07-11T06:49:26.583Z,68.28
2018-07-11T06:50:26.334Z,67.93
2018-07-11T06:51:26.339Z,67.16
2018-07-11T06:52:26.331Z,66.58
2018-07-11T06:53:26.591Z,66.2
2018-07-11T06:54:26.580Z,66.2
2018-07-11T06:55:26.332Z,65.91
2018-07-11T06:56:26.595Z,66.49
2018-07-11T06:57:26.610Z,66.87
2018-07-11T06:58:26.598Z,66.87
2018-07-11T06:59:26.340Z,67.61
2018-07-11T07:00:26.354Z,67.22
2018-07-11T07:01:26.609Z,67.61
2018-07-11T07:02:26.599Z,67.9
2018-07-11T07:03:26.370Z,67.99
2018-07-11T07:04:26.357Z,68.05
2018-07-11T07:05:26.598Z,68.82
2018-07-11T07:06:26.346Z,69.01
2018-07-11T07:07:26.610Z,70.07
2018-07-11T07:08:26.344Z,70.45
2018-07-11T07:09:26.361Z,71.12
2018-07-11T07:10:26.605Z,71.51
2018-07-11T07:11:26.601Z,71.89
2018-07-11T07:12:26.628Z,70.29
2018-07-11T07:13:26.358Z,68.21
2018-07-11T07:14:26.380Z,68.12
2018-07-11T07:15:26.605Z,68.15
2018-07-11T07:16:26.666Z,68.31
2018-07-11T07:17:26.365Z,67.93
2018-07-11T07:18:26.614Z,66.91
2018-07-11T07:19:26.621Z,65.75
2018-07-11T07:20:26.628Z,64.63
2018-07-11T07:21:26.366Z,65.78
2018-07-11T07:22:26.727Z,65.97
2018-07-11T07:23:26.384Z,66.52
2018-07-11T07:24:26.372Z,66.04
2018-07-11T07:25:26.369Z,66.52
2018-07-11T07:26:26.371Z,66.61
2018-07-11T07:27:26.625Z,68.12
2018-07-11T07:28:26.633Z,68.31
2018-07-11T07:29:26.631Z,68.79
2018-07-11T07:30:26.636Z,68.6
2018-07-11T07:31:26.400Z,69.34
2018-07-11T07:32:26.644Z,68.85
2018-07-11T07:33:26.634Z,68.95
2018-07-11T07:34:26.397Z,68.79
2018-07-11T07:35:26.438Z,68.6
2018-07-11T07:36:26.645Z,68.6
2018-07-11T07:37:26.659Z,67.93
2018-07-11T07:38:26.655Z,68.6
2018-07-11T07:39:26.418Z,67.93
2018-07-11T07:40:26.657Z,68.21
2018-07-11T07:41:26.661Z,68.41
2018-07-11T07:42:26.659Z,67.64
2018-07-11T07:43:26.417Z,67.54
2018-07-11T07:44:26.663Z,66.91
2018-07-11T07:45:26.424Z,65.84
2018-07-11T07:46:26.415Z,66.77
2018-07-11T07:47:26.425Z,66.39
2018-07-11T07:48:26.416Z,65.91
2018-07-11T07:49:26.685Z,65.23
2018-07-11T07:50:26.675Z,65.46
2018-07-11T07:51:26.434Z,64.69
2018-07-11T07:52:26.422Z,64.79
2018-07-11T07:53:26.678Z,64.22
2018-07-11T07:54:26.695Z,64.15
2018-07-11T07:55:26.695Z,64.31
2018-07-11T07:56:26.692Z,65.08
2018-07-11T07:57:26.701Z,65.08
2018-07-11T07:58:26.442Z,65.08
2018-07-11T07:59:26.446Z,64.69
2018-07-11T08:00:26.724Z,64.6
2018-07-11T08:01:26.486Z,63.86
2018-07-11T08:02:26.697Z,63.95
2018-07-11T08:03:26.697Z,64.6
2018-07-11T08:04:26.703Z,64.79
2018-07-11T08:05:26.462Z,64.98
2018-07-11T08:06:26.453Z,62.41
2018-07-11T08:07:26.709Z,61
2018-07-11T08:08:26.706Z,59.88
2018-07-11T08:09:26.724Z,60.55
2018-07-11T08:10:26.474Z,60.84
2018-07-11T08:11:26.476Z,61.97
2018-07-11T08:12:26.728Z,60.94
2018-07-11T08:13:26.740Z,60.46
2018-07-11T08:14:26.480Z,59.04
2018-07-11T08:15:26.733Z,58.4
2018-07-11T08:16:26.733Z,57.24
2018-07-11T08:17:26.490Z,56.85
2018-07-11T08:18:26.492Z,56.76
2018-07-11T08:19:26.504Z,56.85
2018-07-11T08:20:26.747Z,57.92
2018-07-11T08:21:26.538Z,58.75
2018-07-11T08:22:26.755Z,59.43
2018-07-11T08:23:26.512Z,60.55
2018-07-11T08:24:26.513Z,61.29
2018-07-11T08:25:26.545Z,60.62
2018-07-11T08:26:26.768Z,58.98
2018-07-11T08:27:27.013Z,58.08
2018-07-11T08:28:26.769Z,54.93
2018-07-11T08:29:26.534Z,53.34
2018-07-11T08:30:26.559Z,51.65
2018-07-11T08:31:26.542Z,50.52
2018-07-11T08:32:26.556Z,49.77
2018-07-11T08:33:26.796Z,47.96
2018-07-11T08:34:26.806Z,45.78
2018-07-11T08:35:26.798Z,43.79
2018-07-11T08:36:26.607Z,41.2
2018-07-11T08:37:26.570Z,41.61
2018-07-11T08:38:26.814Z,42.26
2018-07-11T08:39:26.880Z,44.09
2018-07-11T08:40:26.825Z,46.34
2018-07-11T08:41:26.845Z,47.94
2018-07-11T08:42:26.837Z,48.21
2018-07-11T08:43:26.854Z,47.55
2018-07-11T08:44:26.859Z,49.65
2018-07-11T08:45:26.613Z,50.98
2018-07-11T08:46:26.620Z,52.11
2018-07-11T08:47:26.614Z,53.53
2018-07-11T08:48:26.614Z,53.89
2018-07-11T08:49:26.881Z,54.83
2018-07-11T08:50:26.883Z,55.89
2018-07-11T08:51:26.878Z,57.21
2018-07-11T08:52:26.887Z,57.95
2018-07-11T08:53:26.912Z,59.08
2018-07-11T08:54:26.891Z,59.27
2018-07-11T08:55:26.896Z,59.56
2018-07-11T08:56:26.905Z,60.49
2018-07-11T08:57:26.902Z,60.49
2018-07-11T08:58:26.911Z,60.39
2018-07-11T08:59:26.979Z,60.59
2018-07-11T09:00:26.926Z,60.85
2018-07-11T09:01:26.914Z,60.75
2018-07-11T09:02:26.676Z,61.49
2018-07-11T09:03:26.920Z,62.1
2018-07-11T09:04:26.920Z,61.87
2018-07-11T09:05:26.919Z,62.07
2018-07-11T09:06:26.922Z,61.78
2018-07-11T09:07:26.676Z,62.19
2018-07-11T09:08:26.926Z,60.94
2018-07-11T09:09:26.937Z,60.94
2018-07-11T09:10:26.961Z,60.46
2018-07-11T09:11:26.944Z,60.46
2018-07-11T09:12:26.684Z,60.37
2018-07-11T09:13:26.938Z,59.6
2018-07-11T09:14:26.943Z,58.54
2018-07-11T09:15:26.944Z,58.28
2018-07-11T09:16:26.702Z,56.93
2018-07-11T09:17:26.711Z,56.93
2018-07-11T09:18:26.957Z,56.84
2018-07-11T09:19:26.701Z,57.13
2018-07-11T09:20:26.960Z,57.13
2018-07-11T09:21:26.704Z,57.22
2018-07-11T09:22:26.961Z,57.42
2018-07-11T09:23:26.711Z,58.18
2018-07-11T09:24:27.139Z,58.47
2018-07-11T09:25:26.975Z,58.22
2018-07-11T09:26:26.973Z,56.67
2018-07-11T09:27:26.976Z,56.22
2018-07-11T09:28:26.729Z,55.55
2018-07-11T09:29:26.975Z,55.93
2018-07-11T09:30:26.779Z,55.55
2018-07-11T09:31:26.981Z,55.48
2018-07-11T09:32:26.738Z,54.32
2018-07-11T09:33:26.732Z,55.09
2018-07-11T09:34:26.989Z,54.8
2018-07-11T09:35:26.991Z,55.09
2018-07-11T09:36:26.992Z,55.19
2018-07-11T09:37:27.020Z,53.74
2018-07-11T09:38:27.017Z,54.13
2018-07-11T09:39:26.750Z,54.13
2018-07-11T09:40:27.049Z,53.48
2018-07-11T09:41:26.753Z,53.58
2018-07-11T09:42:27.017Z,53.36
2018-07-11T09:43:27.020Z,53.94
2018-07-11T09:44:27.018Z,53.94
2018-07-11T09:45:27.068Z,53.77
2018-07-11T09:46:27.026Z,53.58
2018-07-11T09:47:26.775Z,52.71
2018-07-11T09:48:27.028Z,53.19
2018-07-11T09:49:27.038Z,53.48
2018-07-11T09:50:27.036Z,53.48
2018-07-11T09:51:27.040Z,53.58
2018-07-11T09:52:27.043Z,53.29
2018-07-11T09:53:26.801Z,54.44
2018-07-11T09:54:26.800Z,54.52
2018-07-11T09:55:27.045Z,54.32
2018-07-11T09:56:27.053Z,53.94
2018-07-11T09:57:27.057Z,53.84
2018-07-11T09:58:27.065Z,53.84
2018-07-11T09:59:27.083Z,52.01
2018-07-11T10:00:27.089Z,52.49
2018-07-11T10:01:27.072Z,52.2
2018-07-11T10:02:27.081Z,51.82
2018-07-11T10:03:27.084Z,52.87
2018-07-11T10:04:27.102Z,50.98
2018-07-11T10:05:26.839Z,50.78
2018-07-11T10:06:26.830Z,48.97
2018-07-11T10:07:27.093Z,48.4
2018-07-11T10:08:27.089Z,48.3
2018-07-11T10:09:26.837Z,48.81
2018-07-11T10:10:27.102Z,48.33
2018-07-11T10:11:26.858Z,47.75
2018-07-11T10:12:27.187Z,47.65
2018-07-11T10:13:27.110Z,48.03
2018-07-11T10:14:26.860Z,47.77
2018-07-11T10:15:27.113Z,46.9
2018-07-11T10:16:26.866Z,46.15
2018-07-11T10:17:26.869Z,46.34
2018-07-11T10:18:27.121Z,46.25
2018-07-11T10:19:26.875Z,46.25
2018-07-11T10:20:27.139Z,47.09
2018-07-11T10:21:27.140Z,48.06
2018-07-11T10:22:27.153Z,49.19
2018-07-11T10:54:11.672Z,50.69
2018-07-11T10:55:11.762Z,50.88
2018-07-11T10:56:11.508Z,50.78
2018-07-11T10:57:11.784Z,51.26
2018-07-11T10:58:11.507Z,52.01
2018-07-11T10:59:11.496Z,51.72
2018-07-11T11:00:11.573Z,52.3
2018-07-11T11:01:11.847Z,52.85
2018-07-11T11:02:11.502Z,53.33
2018-07-11T11:03:11.771Z,53.23
2018-07-11T11:04:11.512Z,52.95
2018-07-11T11:05:11.591Z,53.33
2018-07-11T11:06:11.788Z,53.23
2018-07-11T11:07:11.761Z,53.88
2018-07-11T11:08:11.764Z,53.72
2018-07-11T11:09:11.765Z,53.72
2018-07-11T11:10:11.775Z,53.43
2018-07-11T11:11:11.777Z,52.56
2018-07-11T11:12:11.641Z,53.23
2018-07-11T11:13:11.550Z,53.81
2018-07-11T11:14:11.539Z,54.39
2018-07-11T11:15:11.604Z,54.58
2018-07-11T11:16:11.783Z,54.58
2018-07-11T11:17:11.789Z,54.68
2018-07-11T11:18:11.800Z,54.97
2018-07-11T11:19:11.797Z,55.16
2018-07-11T11:20:11.643Z,55.45
2018-07-11T11:21:11.562Z,55.45
2018-07-11T11:22:11.559Z,56.12
2018-07-11T11:23:11.799Z,56.77
2018-07-11T11:24:11.821Z,57.06
2018-07-11T11:25:11.861Z,57.9
2018-07-11T11:26:11.800Z,57.32
2018-07-11T11:27:11.803Z,56.84
2018-07-11T11:28:11.564Z,56.84
2018-07-11T11:29:11.806Z,55.98
2018-07-11T11:30:11.861Z,56.55
2018-07-11T11:31:11.811Z,56.36
2018-07-11T11:32:11.820Z,56.16
2018-07-11T11:33:11.596Z,56.58
2018-07-11T11:34:11.564Z,56.38
2018-07-11T11:35:11.674Z,55.43
2018-07-11T11:36:11.575Z,55.43
2018-07-11T11:37:11.833Z,55.04
2018-07-11T11:38:11.812Z,55.33
2018-07-11T11:39:11.877Z,55.9
2018-07-11T11:40:11.662Z,55.9
2018-07-11T11:41:11.593Z,55.13
2018-07-11T11:42:12.730Z,54.75
2018-07-11T11:43:11.836Z,54.65
2018-07-11T11:44:11.852Z,54.97
2018-07-11T11:45:11.688Z,54.78
2018-07-11T11:46:11.599Z,54.2
2018-07-11T11:47:11.840Z,52.4
2018-07-11T11:48:11.611Z,52.4
2018-07-11T11:49:11.845Z,52.69
2018-07-11T11:50:11.967Z,52.59
2018-07-11T11:51:11.615Z,53.36
2018-07-11T11:52:11.860Z,52.4
2018-07-11T11:53:11.621Z,52.52
2018-07-11T11:54:12.173Z,52.71
2018-07-11T11:55:11.702Z,52.61
2018-07-11T11:56:11.870Z,51.29
2018-07-11T11:57:11.879Z,49.58
2018-07-11T11:58:11.876Z,49.68
2018-07-11T11:59:11.635Z,49.1
2018-07-11T12:00:12.062Z,48.06
2018-07-11T12:01:11.879Z,48.25
2018-07-11T12:02:11.891Z,49.77
2018-07-11T12:03:11.637Z,49
2018-07-11T12:04:11.892Z,50.26
2018-07-11T12:05:12.047Z,49.19
2018-07-11T12:06:11.898Z,49.96
2018-07-11T12:07:11.974Z,49.6
2018-07-11T12:08:11.905Z,49.39
2018-07-11T12:09:11.893Z,49.22
2018-07-11T12:10:11.736Z,48.83
2018-07-11T12:11:11.692Z,49.02
2018-07-11T12:12:11.676Z,48.16
2018-07-11T12:13:11.686Z,47.29
2018-07-11T12:14:11.688Z,47.87
2018-07-11T12:15:11.809Z,48.81
2018-07-11T12:16:11.936Z,48.33
2018-07-11T12:17:11.700Z,48.61
2018-07-11T12:18:11.942Z,48.52
2018-07-11T12:19:11.945Z,49.19
2018-07-11T12:20:12.110Z,48.71
2018-07-11T12:21:12.098Z,48.23
2018-07-11T12:22:11.701Z,48.52
2018-07-11T12:23:11.964Z,48.81
2018-07-11T12:24:11.973Z,48.35
2018-07-11T12:25:11.875Z,47.77
2018-07-11T12:26:11.979Z,47.67
2018-07-11T12:27:11.747Z,46.92
2018-07-11T12:28:11.734Z,47.02
2018-07-11T12:29:11.734Z,45.76
2018-07-11T12:30:12.240Z,44.73
2018-07-11T12:31:11.749Z,44.8
2018-07-11T12:32:11.749Z,45.48
2018-07-11T12:33:12.013Z,46.33
2018-07-11T12:34:11.748Z,46.81
2018-07-11T12:35:11.958Z,47.07
2018-07-11T12:36:12.015Z,47.27
2018-07-11T12:37:12.004Z,48.03
2018-07-11T12:38:12.019Z,47.45
2018-07-11T12:39:11.766Z,48.23
2018-07-11T12:40:11.855Z,49.48
2018-07-11T12:41:12.034Z,49.68
2018-07-11T12:42:12.030Z,49.29
2018-07-11T12:43:12.033Z,49.29
2018-07-11T12:44:12.038Z,49.29
2018-07-11T12:45:12.212Z,48.88
2018-07-11T12:46:12.045Z,48.42
2018-07-11T12:47:12.047Z,48.4
2018-07-11T12:48:12.056Z,48.11
2018-07-11T12:49:12.083Z,48.49
2018-07-11T12:50:12.191Z,48.59
2018-07-11T12:51:11.856Z,47.24
2018-07-11T12:52:11.810Z,46.95
2018-07-11T12:53:12.064Z,45.79
2018-07-11T12:54:12.072Z,44.73
2018-07-11T12:55:12.143Z,44.46
2018-07-11T12:56:12.074Z,44.73
2018-07-11T12:57:12.086Z,44.66
2018-07-11T12:58:12.101Z,44.85
2018-07-11T12:59:11.857Z,45.41
2018-07-11T13:00:11.904Z,45.48
2018-07-11T13:01:12.097Z,46.06
2018-07-11T13:02:11.849Z,46.73
2018-07-11T13:03:12.114Z,46.73
2018-07-11T13:04:11.859Z,47.12
2018-07-11T13:05:12.115Z,47.8
2018-07-11T13:06:11.861Z,47.89
2018-07-11T13:07:12.111Z,47.51
2018-07-11T13:08:11.893Z,48.57
2018-07-11T13:09:11.862Z,47.82
2018-07-11T13:10:12.144Z,47.82
2018-07-11T13:11:11.872Z,47.63
2018-07-11T13:12:12.170Z,48.3
2018-07-11T13:13:11.872Z,48.11
2018-07-11T13:14:11.904Z,48.69
2018-07-11T13:15:12.001Z,48.21
2018-07-11T13:16:11.999Z,48.88
2018-07-11T13:17:11.897Z,48.59
2018-07-11T13:18:11.896Z,48.59
2018-07-11T13:19:11.905Z,49.17
2018-07-11T13:20:12.341Z,49.46
2018-07-11T13:21:11.907Z,49.84
2018-07-11T13:22:12.155Z,50.4
2018-07-11T13:23:12.166Z,49.73
2018-07-11T13:24:11.923Z,50.59
2018-07-11T13:25:12.343Z,50.4
2018-07-11T13:26:12.180Z,50.3
2018-07-11T13:27:11.929Z,49.84
2018-07-11T13:28:11.923Z,49.65
2018-07-11T13:29:12.185Z,49.27
2018-07-11T13:30:12.369Z,49.07
2018-07-11T13:31:11.927Z,48.97
2018-07-11T13:32:11.939Z,49.84
2018-07-11T13:33:11.938Z,49.94
2018-07-11T13:34:11.935Z,49.65
2018-07-11T13:35:12.377Z,49.55
2018-07-11T13:36:12.195Z,49.84